Kailua Kona, HI (96740)

12:37 AM HST on August 28, 2016 (GMT -1000)
Pualani Estates | | Change Station

Elev 420 ft 19.62 °N, 155.97 °W | Updated 18 seconds ago

Overcast
Overcast
73.9 °F
Feels Like 71 °F
N
0.0
Wind Variable Wind from South
Gusts 0.0 mph

Today
High -- | Low -- °F
--% Chance of Precip.
Yesterday
High -- | Low -- °F
Precip. -- in
Pressure 29.93 in
Visibility 10.0 miles
Clouds Few 3300 ft
Overcast 5500 ft
Heat Index 71 °F
Dew Point 72 °F
Humidity 94%
Rainfall 0.00 in
Snow Depth Not available.
6:07 AM 6:41 PM
Waning Crescent, 16% visible
METAR PHKO 280953Z AUTO 13006KT 10SM FEW033 OVC055 27/22 A2992 RMK AO2 SLP133 T02670217 403110233 TSNO
Pressure 29.93 in
Visibility 10.0 miles
Clouds Few 3300 ft
Overcast 5500 ft
Heat Index 71 °F
Dew Point 72 °F
Humidity 94%
Rainfall 0.00 in
Snow Depth Not available.
6:07 AM 6:41 PM
Waning Crescent, 16% visible
METAR PHKO 280953Z AUTO 13006KT 10SM FEW033 OVC055 27/22 A2992 RMK AO2 SLP133 T02670217 403110233 TSNO

10-Day Weather Forecast

Almanac

Astronomy

Aug. 28, 2016 Rise Set
Actual Time
Civil Twilight
Nautical Twilight
Astronomical Twilight
Moon
Length of Visible Light
Length of Day
Tomorrow will be .
, % of the Moon is Illuminated

Today's Extremes

State Highs State Lows

Community

WunderPhotos

Upload Photos

1,935,541 photos uploaded!

WunderBlog® & News

Nearby

Air Quality

  Air Quality AQ Index Pollutant
Not available.

Snow Depth

Station Depth Elevation

Earthquake Activity

City Distance Mag. Time & Date
Minimum magnitude displayed is 2.5.

Coastal Water Temperatures

Place Temperature

Stations

Nearby Weather Stations

Station Location Temp. Windchill Dew Point Humidity Wind Precip. Elev Updated Type
                   

Watches & Warnings

There are currently no watches in effect.